Time;durP1;ratioP1;P1;durP2;ratioP2;P2;SDS_P1;SDS_P2;PMS_P1;PMS_P2;Temp;Humidity;BMP_temperature;BMP_pressure;BME280_temperature;BME280_humidity;BME280_pressure;Samples;Min_cycle;Max_cycle;Signal;HPM_P1;HPM_P2
2023/01/26 00:00:23;;;;;;;64.38;21.05;;;;;;;-142.75;100.00;79305.44;5020768;28;20033;-65
2023/01/26 00:02:48;;;;;;;71.72;22.40;;;;;;;-142.75;100.00;79287.72;5021232;28;20467;-67
2023/01/26 00:05:13;;;;;;;71.18;23.63;;;;;;;-142.75;100.00;79287.72;5020877;28;20141;-66
2023/01/26 00:07:43;;;;;;;55.53;20.60;;;;;;;-142.75;100.00;79307.41;5020046;28;20029;-67
2023/01/26 00:10:10;;;;;;;67.80;21.83;;;;;;;-142.75;100.00;79271.94;5021040;28;20025;-68
2023/01/26 00:12:35;;;;;;;68.90;23.53;;;;;;;-142.75;100.00;79285.75;5020402;28;20045;-67
2023/01/26 00:15:01;;;;;;;70.73;22.73;;;;;;;-142.75;100.00;79279.84;5021053;28;20203;-68
2023/01/26 00:17:27;;;;;;;58.33;21.40;;;;;;;-142.75;100.00;79268.00;5020205;28;20029;-68
2023/01/26 00:19:54;;;;;;;62.47;21.45;;;;;;;-142.75;100.00;79266.03;5020820;28;20053;-68
2023/01/26 00:22:20;;;;;;;64.80;21.43;;;;;;;-142.75;100.00;79279.84;5019216;28;20029;-68
2023/01/26 00:24:45;;;;;;;;;;;;;;;-142.75;100.00;79248.31;5021451;28;20033;-67
2023/01/26 00:27:11;;;;;;;61.27;19.20;;;;;;;-142.75;100.00;79256.19;5021330;28;19923;-67
2023/01/26 00:29:36;;;;;;;63.42;20.05;;;;;;;-142.75;100.00;79252.25;5040389;28;20053;-67
2023/01/26 00:32:01;;;;;;;72.07;20.40;;;;;;;-142.75;100.00;79260.13;5039866;28;20108;-67
2023/01/26 00:34:26;;;;;;;56.55;19.80;;;;;;;-142.75;100.00;79268.00;5040175;28;20514;-67
2023/01/26 00:36:52;;;;;;;61.50;21.73;;;;;;;-142.75;100.00;79262.09;5039577;28;20025;-68
2023/01/26 00:39:17;;;;;;;67.15;23.20;;;;;;;-142.75;100.00;79264.06;5039844;28;20032;-68
2023/01/26 00:44:26;;;;;;;63.93;21.17;;;;;;;-142.75;100.00;79246.34;5039959;28;20102;-67
2023/01/26 00:46:52;;;;;;;63.33;20.05;;;;;;;-142.75;100.00;79248.31;5039631;28;20048;-67
2023/01/26 00:49:17;;;;;;;61.92;20.92;;;;;;;-142.75;100.00;79236.50;5039827;28;20041;-68
2023/01/26 00:51:42;;;;;;;57.40;21.05;;;;;;;-142.75;100.00;79232.56;5039998;28;20089;-67
2023/01/26 00:54:08;;;;;;;58.45;19.13;;;;;;;-142.75;100.00;79240.44;5039882;28;20039;-68
2023/01/26 00:56:33;;;;;;;60.75;20.70;;;;;;;-142.75;100.00;79236.50;5039415;28;20071;-65
2023/01/26 00:58:58;;;;;;;64.15;20.25;;;;;;;-142.75;100.00;79214.81;5030241;28;20758;-68
2023/01/26 01:01:23;;;;;;;57.33;18.80;;;;;;;-142.75;100.00;79206.94;5002121;28;20835;-65
2023/01/26 01:03:50;;;;;;;69.45;20.92;;;;;;;-142.75;100.00;79212.84;5020254;28;20027;-68
2023/01/26 01:06:16;;;;;;;62.87;20.53;;;;;;;-142.75;100.00;79224.69;5019644;28;20501;-67
2023/01/26 01:08:42;;;;;;;58.20;21.30;;;;;;;-142.75;100.00;79240.44;5019110;28;20032;-68
2023/01/26 01:11:10;;;;;;;59.13;21.27;;;;;;;-142.75;100.00;79236.50;5001522;28;20025;-68
2023/01/26 01:13:36;;;;;;;64.63;20.87;;;;;;;-142.75;100.00;79232.56;5020982;28;20744;-67
2023/01/26 01:16:04;;;;;;;;;;;;;;;-142.75;100.00;79224.69;5019914;28;20022;-67
2023/01/26 01:18:29;;;;;;;61.07;20.87;;;;;;;-142.75;100.00;79240.44;5018982;28;20817;-67
2023/01/26 01:20:54;;;;;;;62.25;19.88;;;;;;;-142.75;100.00;79214.81;5019665;28;20021;-68
2023/01/26 01:23:20;;;;;;;57.80;20.55;;;;;;;-142.75;100.00;79224.69;5019372;28;20826;-68
2023/01/26 01:25:45;;;;;;;61.80;21.23;;;;;;;-142.75;100.00;79220.75;5001912;28;20075;-68
2023/01/26 01:28:10;;;;;;;60.20;19.63;;;;;;;-142.75;100.00;79264.06;5018661;28;20062;-67
2023/01/26 01:30:37;;;;;;;65.70;22.10;;;;;;;-142.75;100.00;79230.59;5019202;28;20465;-67
2023/01/26 01:33:02;;;;;;;58.37;18.43;;;;;;;-142.75;100.00;79244.38;5019320;28;20087;-67
2023/01/26 01:35:28;;;;;;;57.40;19.05;;;;;;;-142.75;100.00;79238.47;5019130;28;20812;-68
2023/01/26 01:37:53;;;;;;;56.78;19.75;;;;;;;-142.75;100.00;79208.91;5018514;28;20025;-68
2023/01/26 01:40:18;;;;;;;52.53;18.70;;;;;;;-142.75;100.00;79222.72;5018990;28;20025;-68
2023/01/26 01:42:48;;;;;;;55.78;19.38;;;;;;;-142.75;100.00;79212.84;5001670;28;20033;-68
2023/01/26 01:45:25;;;;;;;64.63;21.83;;;;;;;-142.75;100.00;79204.97;5019065;28;20040;-68
2023/01/26 01:47:58;;;;;;;56.00;21.13;;;;;;;-142.75;100.00;79204.97;5018494;28;20029;-68
2023/01/26 01:50:24;;;;;;;65.27;21.00;;;;;;;-142.75;100.00;79206.94;5019326;28;20029;-65
2023/01/26 01:52:51;;;;;;;64.97;20.13;;;;;;;-142.75;100.00;79212.84;5019210;28;20026;-67
2023/01/26 01:55:16;;;;;;;61.10;21.97;;;;;;;-142.75;100.00;79214.81;5001288;28;20503;-67
2023/01/26 01:57:47;;;;;;;59.60;20.80;;;;;;;-142.75;100.00;79204.97;5018325;28;20025;-67
2023/01/26 02:00:22;;;;;;;66.37;20.67;;;;;;;-142.75;100.00;79204.97;4999734;28;20296;-65
2023/01/26 02:03:13;;;;;;;62.70;19.83;;;;;;;-142.75;100.00;79208.91;4946833;28;20163;-65
2023/01/26 02:05:45;;;;;;;65.23;20.73;;;;;;;-142.75;100.00;79201.03;4965471;28;20328;-65
2023/01/26 02:08:13;;;;;;;63.63;20.43;;;;;;;-142.75;100.00;79191.19;4968668;28;20029;-66
2023/01/26 02:10:41;;;;;;;65.33;21.20;;;;;;;-142.75;100.00;79165.59;4965500;28;20309;-65
2023/01/26 02:13:07;;;;;;;58.67;18.77;;;;;;;-142.75;100.00;79177.41;5015648;28;20021;-67
2023/01/26 02:15:32;;;;;;;;;;;;;;;-142.75;100.00;79153.75;5038845;28;20032;-67
2023/01/26 02:18:01;;;;;;;63.97;21.23;;;;;;;-142.75;100.00;79139.97;5037747;28;19960;-68
2023/01/26 02:23:30;;;;;;;57.07;20.00;;;;;;;-142.75;100.00;79151.78;6010824;22;20124;-66
2023/01/26 02:26:06;;;;;;;63.97;20.67;;;;;;;-142.75;100.00;79151.78;5025008;28;20112;-67
2023/01/26 02:28:31;;;;;;;66.53;21.90;;;;;;;-142.75;100.00;79159.69;5018992;28;20459;-68
2023/01/26 02:30:57;;;;;;;63.53;22.75;;;;;;;-142.75;100.00;79147.84;5035751;28;20020;-68
2023/01/26 02:33:24;;;;;;;;;;;;;;;-142.75;100.00;79128.16;5039336;28;20036;-67
2023/01/26 02:35:50;;;;;;;59.42;19.00;;;;;;;-142.75;100.00;79132.09;5033164;28;19920;-67
2023/01/26 02:38:17;;;;;;;;;;;;;;;-142.75;100.00;79128.16;5034536;28;20024;-68
2023/01/26 02:40:57;;;;;;;51.05;18.48;;;;;;;-142.75;100.00;79153.75;5032063;28;20443;-69
2023/01/26 02:43:24;;;;;;;57.60;19.77;;;;;;;-142.75;100.00;79139.97;5029203;28;20095;-68
2023/01/26 02:45:50;;;;;;;67.50;20.90;;;;;;;-142.75;100.00;79153.75;5030527;28;20052;-68
2023/01/26 02:49:45;;;;;;;58.50;20.40;;;;;;;-142.75;100.00;79134.06;5030476;28;20038;-68
2023/01/26 02:51:01;;;;;;;56.07;19.67;;;;;;;-142.75;100.00;79145.88;5039070;28;20403;-68
2023/01/26 02:53:26;;;;;;;59.97;21.08;;;;;;;-142.75;100.00;79143.91;5054084;28;20032;-68
2023/01/26 02:55:51;;;;;;;65.25;21.10;;;;;;;-142.75;100.00;79134.06;5054129;28;20418;-69
2023/01/26 02:58:17;;;;;;;53.42;18.60;;;;;;;-142.75;100.00;79145.88;5034553;28;20033;-68
2023/01/26 03:00:42;;;;;;;55.13;18.85;;;;;;;-142.75;100.00;79151.78;5046738;28;20033;-69
2023/01/26 03:03:16;;;;;;;51.35;18.60;;;;;;;-142.75;100.00;79118.31;5053826;28;20052;-68
2023/01/26 03:05:42;;;;;;;46.60;18.23;;;;;;;-142.75;100.00;79126.19;5054244;28;20029;-68
2023/01/26 03:08:07;;;;;;;55.63;19.15;;;;;;;-142.75;100.00;79116.34;5053937;28;20392;-68
2023/01/26 03:10:33;;;;;;;53.85;17.45;;;;;;;-142.75;100.00;79110.44;5049249;28;20027;-66
2023/01/26 03:12:59;;;;;;;54.10;18.70;;;;;;;-142.75;100.00;79102.56;5033805;28;20040;-68
2023/01/26 03:15:51;;;;;;;51.95;18.40;;;;;;;-142.75;100.00;79102.56;5049485;28;20021;-68
2023/01/26 03:29:18;;;;;;;42.30;15.57;;;;;;;-142.75;100.00;79080.88;5036968;28;20047;-68
2023/01/26 03:31:44;;;;;;;47.80;17.27;;;;;;;-142.75;100.00;79078.91;5038933;28;20033;-68
2023/01/26 03:34:10;;;;;;;42.85;16.77;;;;;;;-142.75;100.00;79088.75;5038936;28;20025;-68
2023/01/26 03:36:36;;;;;;;43.55;16.17;;;;;;;-142.75;100.00;79073.00;5033668;28;20030;-68
2023/01/26 03:39:03;;;;;;;45.70;17.27;;;;;;;-142.75;100.00;79073.00;5033620;28;20027;-68
2023/01/26 03:57:52;;;;;;;39.33;14.80;;;;;;;-142.75;100.00;79067.09;5033321;28;20095;-68
2023/01/26 04:00:17;;;;;;;43.47;15.82;;;;;;;-142.75;100.00;79057.25;5033421;28;20040;-68
2023/01/26 04:08:19;;;;;;;39.77;16.77;;;;;;;-142.75;100.00;79073.00;5033174;28;20623;-68
2023/01/26 04:10:44;;;;;;;42.17;15.93;;;;;;;-142.75;100.00;79059.22;5035978;28;20021;-69
2023/01/26 04:21:28;;;;;;;38.37;15.67;;;;;;;-142.75;100.00;79049.38;5051307;28;20059;-68
2023/01/26 04:23:56;;;;;;;40.50;15.93;;;;;;;-142.75;100.00;79065.13;5045584;28;20028;-68
2023/01/26 04:26:22;;;;;;;40.00;15.97;;;;;;;-142.75;100.00;79065.13;5052578;28;20024;-68
2023/01/26 04:28:47;;;;;;;;;;;;;;;-142.75;100.00;79071.03;5053101;28;20112;-68
2023/01/26 04:31:12;;;;;;;37.33;14.57;;;;;;;-142.75;100.00;79082.84;5048598;28;20519;-68
2023/01/26 04:33:38;;;;;;;39.63;14.40;;;;;;;-142.75;100.00;79080.88;5052334;28;20391;-69
2023/01/26 04:36:05;;;;;;;40.67;16.40;;;;;;;-142.75;100.00;79063.16;5044475;28;20021;-69
2023/01/26 04:38:30;;;;;;;38.87;15.70;;;;;;;-142.75;100.00;79069.06;5040066;28;20032;-67
2023/01/26 04:40:55;;;;;;;36.05;14.40;;;;;;;-142.75;100.00;79051.34;5052162;28;20040;-68
2023/01/26 04:43:20;;;;;;;41.40;14.98;;;;;;;-142.75;100.00;79045.44;5051962;28;20021;-69
2023/01/26 04:45:56;;;;;;;42.38;17.00;;;;;;;-142.75;100.00;79055.28;5052399;28;20031;-68
2023/01/26 04:48:22;;;;;;;39.90;16.00;;;;;;;-142.75;100.00;79061.19;5046639;28;20025;-69
2023/01/26 04:50:53;;;;;;;41.05;15.70;;;;;;;-142.75;100.00;79047.41;5050964;28;20029;-68
2023/01/26 04:53:18;;;;;;;38.43;14.70;;;;;;;-142.75;100.00;79033.63;5051903;28;20056;-69
2023/01/26 04:55:43;;;;;;;43.10;16.23;;;;;;;-142.75;100.00;79049.38;5052119;28;20605;-68
2023/01/26 04:58:09;;;;;;;36.35;14.70;;;;;;;-142.75;100.00;79035.59;5052138;28;20047;-68
2023/01/26 05:00:34;;;;;;;29.63;14.07;;;;;;;-142.75;100.00;79019.81;5052048;28;20028;-68
2023/01/26 05:02:59;;;;;;;34.47;13.95;;;;;;;-142.75;100.00;79019.81;5038574;28;20384;-68
2023/01/26 05:05:24;;;;;;;36.50;14.80;;;;;;;-142.75;100.00;79033.63;5030704;28;20507;-69
2023/01/26 05:07:52;;;;;;;36.95;15.63;;;;;;;-142.75;100.00;79027.69;5050121;28;20048;-68
2023/01/26 05:10:17;;;;;;;36.87;15.03;;;;;;;-142.75;100.00;79021.78;5050631;28;20506;-68
2023/01/26 05:12:42;;;;;;;39.78;15.82;;;;;;;-142.75;100.00;79031.66;5057566;28;20033;-68
2023/01/26 05:15:08;;;;;;;34.63;13.82;;;;;;;-142.75;100.00;79021.78;5047641;28;20021;-68
2023/01/26 05:17:35;;;;;;;33.95;13.20;;;;;;;-142.75;100.00;79027.69;5050186;28;20535;-67
2023/01/26 05:20:00;;;;;;;40.43;13.70;;;;;;;-142.75;100.00;79037.56;5051564;28;20032;-68
2023/01/26 05:22:26;;;;;;;37.28;14.50;;;;;;;-142.75;100.00;79023.75;5051464;28;20021;-67
2023/01/26 05:24:51;;;;;;;36.45;14.85;;;;;;;-142.75;100.00;79031.66;5049875;28;20112;-69
2023/01/26 05:27:19;;;;;;;43.17;16.15;;;;;;;-142.75;100.00;79031.66;5044584;28;20049;-69
2023/01/26 05:29:45;;;;;;;32.83;14.07;;;;;;;-142.75;100.00;79029.66;5051367;28;20021;-68
2023/01/26 05:32:10;;;;;;;39.13;15.93;;;;;;;-142.75;100.00;79031.66;5049884;28;20400;-68
2023/01/26 05:34:35;;;;;;;40.55;14.63;;;;;;;-142.75;100.00;79011.94;5051085;28;20032;-68
2023/01/26 05:37:01;;;;;;;36.97;14.80;;;;;;;-142.75;100.00;79008.00;5051231;28;20021;-68
2023/01/26 05:39:26;;;;;;;41.75;15.63;;;;;;;-142.75;100.00;79000.13;5045856;28;20400;-68
2023/01/26 05:41:52;;;;;;;38.10;14.32;;;;;;;-142.75;100.00;79008.00;5051231;28;20037;-69
2023/01/26 05:44:18;;;;;;;34.37;13.67;;;;;;;-142.75;100.00;79015.88;5048232;28;20559;-68
2023/01/26 05:46:43;;;;;;;34.13;14.30;;;;;;;-142.75;100.00;79021.78;5048386;28;20100;-68
2023/01/26 05:49:08;;;;;;;37.13;13.85;;;;;;;-142.75;100.00;79015.88;5034010;28;20025;-68
2023/01/26 05:51:34;;;;;;;38.80;13.88;;;;;;;-142.75;100.00;78998.16;5031244;28;20033;-69
2023/01/26 05:53:59;;;;;;;33.55;13.55;;;;;;;-142.75;100.00;78998.16;5033737;28;20026;-69
2023/01/26 05:56:24;;;;;;;31.05;13.25;;;;;;;-142.75;100.00;79008.00;5047479;28;20029;-68
2023/01/26 05:58:50;;;;;;;35.75;14.52;;;;;;;-142.75;100.00;79008.00;5031077;28;20083;-69
2023/01/26 06:01:15;;;;;;;35.00;14.25;;;;;;;-142.75;100.00;78992.25;5029635;28;20400;-69
2023/01/26 06:03:40;;;;;;;38.08;14.45;;;;;;;-142.75;100.00;79000.13;5032083;28;20030;-69
2023/01/26 06:06:05;;;;;;;37.53;14.38;;;;;;;-142.75;100.00;78992.25;5030934;28;20021;-68
2023/01/26 06:08:31;;;;;;;34.03;13.20;;;;;;;-142.75;100.00;78992.25;5030972;28;20064;-69
2023/01/26 06:10:59;;;;;;;37.20;13.88;;;;;;;-142.75;100.00;78974.53;5029633;28;20021;-68
2023/01/26 06:13:24;;;;;;;34.60;14.83;;;;;;;-142.75;100.00;78972.56;5030578;28;20049;-68
2023/01/26 06:15:50;;;;;;;33.78;13.88;;;;;;;-142.75;100.00;78976.50;5043610;28;20052;-68
2023/01/26 06:18:15;;;;;;;35.22;12.73;;;;;;;-142.75;100.00;78990.28;5050757;28;20020;-69
2023/01/26 06:20:40;;;;;;;32.40;13.25;;;;;;;-142.75;100.00;78988.31;5036919;28;20582;-68
2023/01/26 06:23:10;;;;;;;36.25;14.73;;;;;;;-142.75;100.00;78976.50;5048990;28;20100;-68
2023/01/26 06:25:38;;;;;;;33.97;12.83;;;;;;;-142.75;100.00;78976.50;5049088;28;20099;-69
2023/01/26 06:28:04;;;;;;;36.10;13.47;;;;;;;-142.75;100.00;78980.44;5050511;28;20470;-68
2023/01/26 06:30:29;;;;;;;34.15;14.20;;;;;;;-142.75;100.00;78978.47;5050566;28;20024;-68
2023/01/26 06:32:54;;;;;;;36.42;14.35;;;;;;;-142.75;100.00;78978.47;5037742;28;20032;-69
2023/01/26 06:35:20;;;;;;;32.63;13.80;;;;;;;-142.75;100.00;78968.63;5050578;28;20024;-69
2023/01/26 06:37:49;;;;;;;39.28;14.27;;;;;;;-142.75;100.00;78968.63;5050524;28;20021;-68
2023/01/26 06:40:14;;;;;;;34.50;13.17;;;;;;;-142.75;100.00;78976.50;5055367;28;20028;-68
2023/01/26 06:42:46;;;;;;;34.80;13.98;;;;;;;-142.75;100.00;78982.41;5044184;28;20033;-68
2023/01/26 06:45:11;;;;;;;38.13;14.87;;;;;;;-142.75;100.00;78984.38;5029186;28;20022;-68
2023/01/26 06:47:36;;;;;;;35.15;14.25;;;;;;;-142.75;100.00;78974.53;5031906;28;20492;-67
2023/01/26 06:50:02;;;;;;;39.85;13.48;;;;;;;-142.75;100.00;78976.50;5034850;28;20063;-69
2023/01/26 06:52:31;;;;;;;48.63;16.30;;;;;;;-142.75;100.00;78972.56;5050244;28;20051;-68
2023/01/26 06:54:59;;;;;;;43.37;14.03;;;;;;;-142.75;100.00;78964.69;5050036;28;20029;-69
2023/01/26 06:57:25;;;;;;;38.87;13.83;;;;;;;-142.75;100.00;78958.75;5050361;28;20043;-68
2023/01/26 06:59:50;;;;;;;53.90;14.82;;;;;;;-142.75;100.00;78943.00;5050376;28;20201;-68
2023/01/26 07:02:18;;;;;;;38.53;12.98;;;;;;;-142.75;100.00;78937.09;5033890;28;20021;-68
2023/01/26 07:04:44;;;;;;;42.60;13.70;;;;;;;-142.75;100.00;78933.16;5030040;28;20108;-69
2023/01/26 07:07:09;;;;;;;;;;;;;;;-142.75;100.00;78933.16;5030788;28;20041;-67
2023/01/26 07:09:34;;;;;;;39.60;13.43;;;;;;;-142.75;100.00;78927.25;5029018;28;19924;-68
2023/01/26 07:12:00;;;;;;;43.45;13.65;;;;;;;-142.75;100.00;78913.47;5037190;28;20045;-69
2023/01/26 07:14:25;;;;;;;43.33;14.52;;;;;;;-142.75;100.00;78903.63;5037153;28;20029;-67
2023/01/26 07:16:50;;;;;;;46.50;14.75;;;;;;;-142.75;100.00;78897.72;5050196;28;20021;-68
2023/01/26 07:19:16;;;;;;;43.42;14.07;;;;;;;-142.75;100.00;78901.66;5049846;28;20017;-68
2023/01/26 07:21:41;;;;;;;48.35;13.57;;;;;;;-142.75;100.00;78891.78;5048925;28;20021;-68
2023/01/26 07:24:08;;;;;;;38.85;12.40;;;;;;;-142.75;100.00;78874.06;5042908;28;20040;-69
2023/01/26 07:26:33;;;;;;;50.87;13.40;;;;;;;-142.75;100.00;78878.00;5050047;28;20021;-68
2023/01/26 07:28:58;;;;;;;45.38;12.20;;;;;;;-142.75;100.00;78864.22;5048715;28;20097;-68
2023/01/26 07:31:24;;;;;;;41.15;12.43;;;;;;;-142.75;100.00;78856.34;5031507;28;20029;-68
2023/01/26 07:33:49;;;;;;;39.17;11.27;;;;;;;-142.75;100.00;78836.66;5029983;28;20113;-68
2023/01/26 07:36:14;;;;;;;41.20;11.63;;;;;;;-142.75;100.00;78826.81;5029191;28;20044;-68
2023/01/26 07:38:40;;;;;;;37.38;9.60;;;;;;;-142.75;100.00;78816.94;5049960;28;20017;-69
2023/01/26 07:41:08;;;;;;;37.65;10.05;;;;;;;-142.75;100.00;78805.13;5049298;28;20021;-68
2023/01/26 07:43:36;;;;;;;30.53;9.20;;;;;;;-142.75;100.00;78795.28;5033265;28;20025;-67
2023/01/26 07:46:01;;;;;;;35.80;9.03;;;;;;;-142.75;100.00;78795.28;5049443;28;20401;-68
2023/01/26 07:48:28;;;;;;;35.92;8.50;;;;;;;-142.75;100.00;78787.41;5053373;28;20040;-68
2023/01/26 07:50:57;;;;;;;25.83;7.90;;;;;;;-142.75;100.00;78765.75;5044329;28;20061;-68
2023/01/26 07:53:25;;;;;;;32.47;8.13;;;;;;;-142.75;100.00;78763.78;5041491;28;20091;-68
2023/01/26 07:55:50;;;;;;;24.90;5.97;;;;;;;-142.75;100.00;78761.81;5033272;28;20140;-69
2023/01/26 07:58:17;;;;;;;26.75;6.60;;;;;;;-142.75;100.00;78771.66;5033930;28;20062;-68
2023/01/26 08:00:45;;;;;;;24.70;6.57;;;;;;;-142.75;100.00;78744.09;5051778;28;20047;-68
2023/01/26 08:03:12;;;;;;;36.77;7.47;;;;;;;-142.75;100.00;78755.91;5033030;28;20049;-68
2023/01/26 08:05:37;;;;;;;24.00;5.43;;;;;;;-142.75;100.00;78751.97;5048924;28;20025;-68
2023/01/26 08:08:03;;;;;;;21.75;5.78;;;;;;;-142.75;100.00;78742.09;5042518;28;20491;-68
2023/01/26 08:10:32;;;;;;;25.43;4.37;;;;;;;-142.75;100.00;78732.25;5033029;28;20104;-68
2023/01/26 08:13:02;;;;;;;26.53;4.33;;;;;;;-142.75;100.00;78740.13;5039789;28;20067;-68
2023/01/26 08:15:28;;;;;;;16.73;3.87;;;;;;;-142.75;100.00;78736.19;5051814;28;20108;-69
2023/01/26 08:17:53;;;;;;;25.42;4.53;;;;;;;-142.75;100.00;78736.19;5037276;28;20036;-68
2023/01/26 08:20:19;;;;;;;27.30;4.88;;;;;;;-142.75;100.00;78728.31;5038376;28;20045;-68
2023/01/26 08:22:44;;;;;;;23.50;3.72;;;;;;;-142.75;100.00;78720.44;5032819;28;20096;-68
2023/01/26 08:25:10;;;;;;;23.00;2.95;;;;;;;-142.75;100.00;78704.69;5032670;28;20074;-68
2023/01/26 08:27:35;;;;;;;36.63;4.78;;;;;;;-142.75;100.00;78712.56;5035388;28;20074;-66
2023/01/26 08:30:00;;;;;;;19.83;4.38;;;;;;;-142.75;100.00;78722.41;5032717;28;20404;-68
2023/01/26 08:32:29;;;;;;;18.98;3.70;;;;;;;-142.75;100.00;78720.44;5031319;28;20044;-67
2023/01/26 08:34:54;;;;;;;25.43;3.50;;;;;;;-142.75;100.00;78706.66;5032533;28;20115;-68
2023/01/26 08:37:19;;;;;;;22.33;3.05;;;;;;;-142.75;100.00;78712.56;5032423;28;20045;-66
2023/01/26 08:39:44;;;;;;;15.25;2.92;;;;;;;-142.75;100.00;78700.75;5038668;28;20403;-68
2023/01/26 08:42:10;;;;;;;21.92;2.80;;;;;;;-142.75;100.00;78702.72;5032554;28;20037;-66
2023/01/26 08:44:35;;;;;;;30.88;3.55;;;;;;;-142.75;100.00;78704.69;5032135;28;20029;-66
2023/01/26 08:47:00;;;;;;;12.95;2.03;;;;;;;-142.75;100.00;78710.59;5031191;28;20091;-69
2023/01/26 08:49:26;;;;;;;26.67;2.75;;;;;;;-142.75;100.00;78694.84;5046064;28;20032;-68
2023/01/26 08:51:51;;;;;;;17.27;2.60;;;;;;;-142.75;100.00;78700.75;5047146;28;20391;-68
2023/01/26 08:54:16;;;;;;;19.50;3.00;;;;;;;-142.75;100.00;78704.69;5051690;28;20024;-67
2023/01/26 08:56:42;;;;;;;20.70;3.10;;;;;;;-142.75;100.00;78716.50;5052212;28;20483;-68
2023/01/26 08:59:07;;;;;;;20.92;2.65;;;;;;;-142.75;100.00;78712.56;5046691;28;20045;-68
2023/01/26 09:01:32;;;;;;;16.05;3.03;;;;;;;-142.75;100.00;78720.44;5051935;28;20025;-69
2023/01/26 09:03:57;;;;;;;10.05;2.55;;;;;;;-142.75;100.00;78698.78;5051700;28;20525;-68
2023/01/26 09:06:24;;;;;;;18.90;2.53;;;;;;;-142.75;100.00;78688.94;5051878;28;20025;-65
2023/01/26 09:08:49;;;;;;;19.98;2.30;;;;;;;-142.75;100.00;78643.63;5051809;28;20021;-66
2023/01/26 09:11:15;;;;;;;16.52;3.20;;;;;;;-142.75;100.00;78641.66;5040599;28;20101;-66
2023/01/26 09:13:40;;;;;;;27.85;2.80;;;;;;;-142.75;100.00;78614.09;5049003;28;20052;-66
2023/01/26 09:16:11;;;;;;;28.02;3.42;;;;;;;-142.75;100.00;78576.66;5040554;28;20044;-66
2023/01/26 09:18:36;;;;;;;24.67;3.37;;;;;;;-142.75;100.00;78594.41;5049795;28;20040;-66
2023/01/26 09:21:06;;;;;;;18.35;3.20;;;;;;;-142.75;100.00;78570.75;5048249;28;20404;-66
2023/01/26 09:23:32;;;;;;;27.77;3.30;;;;;;;-142.75;100.00;78570.75;5031202;28;20025;-66
2023/01/26 09:25:58;;;;;;;;;;;;;;;-142.75;100.00;78570.75;5031977;28;20036;-66
2023/01/26 09:28:23;;;;;;;19.60;2.80;;;;;;;-142.75;100.00;78580.59;5032891;28;20336;-66
2023/01/26 09:30:48;;;;;;;27.42;3.20;;;;;;;-142.75;100.00;78606.22;5033077;28;20110;-66
2023/01/26 09:33:13;;;;;;;24.15;2.33;;;;;;;-142.75;100.00;78625.91;5031355;28;20499;-68
2023/01/26 09:35:39;;;;;;;21.15;3.05;;;;;;;-142.75;100.00;78604.25;5031542;28;20132;-69
2023/01/26 09:38:04;;;;;;;17.67;2.50;;;;;;;-142.75;100.00;78616.06;5031474;28;20022;-69
2023/01/26 09:41:27;;;;;;;17.90;3.10;;;;;;;-142.75;100.00;78620.00;5044460;28;20021;-68
2023/01/26 09:43:52;;;;;;;13.53;2.17;;;;;;;-142.75;100.00;78641.66;4990494;28;20042;-69
2023/01/26 09:46:24;;;;;;;16.60;2.20;;;;;;;-142.75;100.00;78645.59;4973332;28;20460;-68
2023/01/26 09:49:07;;;;;;;19.23;2.90;;;;;;;-142.75;100.00;78633.78;5023825;28;20049;-69
2023/01/26 09:51:37;;;;;;;16.00;2.93;;;;;;;-142.75;100.00;78649.53;5051070;28;20063;-68
2023/01/26 09:54:32;;;;;;;15.70;2.27;;;;;;;-142.75;100.00;78629.84;5050725;28;20017;-68
2023/01/26 09:57:01;;;;;;;29.57;2.93;;;;;;;-142.75;100.00;78616.06;5040243;28;20116;-69
2023/01/26 09:59:34;;;;;;;18.40;2.20;;;;;;;-142.75;100.00;78629.84;5050435;28;20052;-68
2023/01/26 10:02:21;;;;;;;17.27;2.73;;;;;;;-142.75;100.00;78618.03;5049101;28;20083;-66
2023/01/26 10:04:48;;;;;;;;;;;;;;;-142.75;100.00;78600.31;5031026;28;20049;-68
2023/01/26 10:07:14;;;;;;;15.70;2.95;;;;;;;-142.75;100.00;78614.09;5029706;28;19913;-69
2023/01/26 10:09:41;;;;;;;;;;;;;;;-142.75;100.00;78590.47;5029967;28;20052;-66
2023/01/26 10:12:19;;;;;;;11.63;1.83;;;;;;;-142.75;100.00;78616.06;5030877;28;19912;-66
2023/01/26 10:15:07;;;;;;;20.70;2.93;;;;;;;-142.75;100.00;78596.38;5030474;28;20387;-66
2023/01/26 10:17:44;;;;;;;24.53;3.97;;;;;;;-142.75;100.00;78574.69;5030963;28;20108;-66
2023/01/26 10:20:30;;;;;;;17.37;2.83;;;;;;;-142.75;100.00;78582.59;5029874;28;20483;-66
2023/01/26 10:23:04;;;;;;;26.58;2.90;;;;;;;-142.75;100.00;78564.84;5030327;28;20392;-69
2023/01/26 10:25:34;;;;;;;17.67;3.27;;;;;;;-142.75;100.00;78553.03;5030624;28;20021;-68
2023/01/26 10:28:10;;;;;;;18.10;2.57;;;;;;;-142.75;100.00;78527.44;5030544;28;20025;-66
2023/01/26 10:30:35;;;;;;;13.13;2.13;;;;;;;-142.75;100.00;78499.88;5042973;28;20063;-69
2023/01/26 10:33:00;;;;;;;14.32;3.53;;;;;;;-142.75;100.00;78511.69;5043081;28;20484;-66
2023/01/26 10:35:26;;;;;;;16.15;2.83;;;;;;;-142.75;100.00;78511.69;5029336;28;20022;-66
2023/01/26 10:37:51;;;;;;;18.95;2.95;;;;;;;-142.75;100.00;78527.44;5030571;28;20088;-66
2023/01/26 10:40:18;;;;;;;18.30;2.70;;;;;;;-142.75;100.00;78511.69;5030619;28;20105;-66
2023/01/26 10:42:55;;;;;;;16.43;2.63;;;;;;;-142.75;100.00;78497.91;5028915;28;20025;-65
2023/01/26 10:45:31;;;;;;;16.92;2.20;;;;;;;-142.75;100.00;78488.03;5034360;28;20108;-66
2023/01/26 10:48:04;;;;;;;;;;;;;;;-142.75;100.00;78428.97;5050793;28;20040;-69
2023/01/26 10:50:30;;;;;;;19.30;3.13;;;;;;;-142.75;100.00;78395.47;5049001;28;20368;-68
2023/01/26 10:52:57;;;;;;;10.63;2.50;;;;;;;-142.75;100.00;78324.59;5049828;28;20017;-68
2023/01/26 10:55:22;;;;;;;20.65;2.60;;;;;;;-142.75;100.00;78295.06;5037338;28;20022;-65
2023/01/26 10:57:48;;;;;;;10.88;2.15;;;;;;;-142.75;100.00;78255.66;5042761;28;20029;-69
2023/01/26 11:00:25;;;;;;;;;;;;;;;-142.75;100.00;78228.09;5050619;28;20423;-69
2023/01/26 11:02:58;;;;;;;14.82;2.83;;;;;;;-142.75;100.00;78180.81;5050122;28;20022;-69
2023/01/26 11:05:25;;;;;;;23.38;2.63;;;;;;;-142.75;100.00;78190.69;5042913;28;20021;-69
2023/01/26 11:07:59;;;;;;;15.82;1.83;;;;;;;-142.75;100.00;78163.09;5029156;28;20029;-69
2023/01/26 11:10:30;;;;;;;17.45;2.75;;;;;;;-142.75;100.00;78131.59;5029661;28;20083;-69
2023/01/26 11:13:28;;;;;;;16.40;2.83;;;;;;;-142.75;100.00;78107.97;5032832;28;20443;-69
2023/01/26 11:16:12;;;;;;;16.70;2.40;;;;;;;-142.75;100.00;78123.72;5016424;28;20499;-69
2023/01/26 11:19:06;;;;;;;13.68;2.67;;;;;;;-142.75;100.00;78042.97;5040242;28;20099;-69
2023/01/26 11:21:35;;;;;;;14.23;2.22;;;;;;;-142.75;100.00;78015.41;5033690;28;20029;-68
2023/01/26 11:24:14;;;;;;;7.95;1.65;;;;;;;-142.75;100.00;78046.91;5032167;28;20033;-69
2023/01/26 11:27:09;;;;;;;14.57;1.80;;;;;;;-142.75;100.00;78019.34;5039206;28;20139;-69
2023/01/26 11:29:45;;;;;;;10.75;1.38;;;;;;;-142.75;100.00;78011.47;5053845;28;20017;-69
2023/01/26 11:32:55;;;;;;;16.92;2.17;;;;;;;-142.75;100.00;77968.16;5053857;28;20025;-70
2023/01/26 11:35:50;;;;;;;10.23;1.92;;;;;;;-142.75;100.00;77983.91;5046086;28;20108;-70
2023/01/26 11:38:31;;;;;;;17.58;2.03;;;;;;;-142.75;100.00;77983.91;5046180;28;20140;-69
2023/01/26 11:40:56;;;;;;;18.50;2.17;;;;;;;-142.75;100.00;78015.41;5032930;28;20027;-69
2023/01/26 11:43:34;;;;;;;10.05;1.30;;;;;;;-142.75;100.00;78007.53;5033283;28;20386;-69
2023/01/26 11:46:24;;;;;;;13.40;1.77;;;;;;;-142.75;100.00;77948.47;5033569;28;20037;-68
2023/01/26 11:49:14;;;;;;;16.13;2.00;;;;;;;-142.75;100.00;78025.25;5034947;28;20025;-69
2023/01/26 11:51:57;;;;;;;8.70;1.33;;;;;;;-142.75;100.00;77920.91;5033607;28;20025;-70